createdAt,value
2019-05-12T00:01:42.772Z,8.00
2019-05-12T00:04:48.833Z,7.97
2019-05-12T00:07:53.153Z,7.93
2019-05-12T00:10:58.297Z,7.94
2019-05-12T00:14:02.245Z,7.89
2019-05-12T00:17:08.089Z,7.83
2019-05-12T00:20:11.718Z,7.88
2019-05-12T00:23:26.744Z,7.83
2019-05-12T00:26:20.762Z,7.86
2019-05-12T00:29:24.533Z,7.91
2019-05-12T00:32:28.301Z,7.84
2019-05-12T00:35:31.902Z,7.83
2019-05-12T00:38:35.556Z,7.79
2019-05-12T00:41:39.305Z,7.78
2019-05-12T00:44:43.014Z,7.72
2019-05-12T00:47:48.102Z,7.78
2019-05-12T00:50:51.962Z,7.87
2019-05-12T00:53:57.586Z,7.91
2019-05-12T00:57:02.037Z,7.92
2019-05-12T01:00:08.721Z,7.92
2019-05-12T01:03:12.579Z,7.87
2019-05-12T01:06:17.789Z,7.85
2019-05-12T01:09:21.982Z,7.73
2019-05-12T01:12:25.744Z,7.82
2019-05-12T01:15:29.492Z,7.83
2019-05-12T01:18:33.840Z,7.81
2019-05-12T01:21:37.870Z,7.81
2019-05-12T01:24:41.783Z,7.74
2019-05-12T01:27:48.223Z,7.76
2019-05-12T01:30:50.922Z,7.83
2019-05-12T01:33:54.782Z,7.74
2019-05-12T01:37:00.115Z,7.70
2019-05-12T01:40:05.124Z,7.74
2019-05-12T01:43:09.124Z,7.75
2019-05-12T01:46:14.067Z,7.67
2019-05-12T01:49:18.645Z,7.60
2019-05-12T01:52:22.830Z,7.61
2019-05-12T01:55:28.091Z,7.78
2019-05-12T01:58:32.040Z,7.80
2019-05-12T02:01:35.750Z,7.85
2019-05-12T02:04:58.812Z,7.83
2019-05-12T02:08:03.337Z,7.88
2019-05-12T02:11:25.089Z,7.92
2019-05-12T02:14:28.677Z,7.94
2019-05-12T02:17:32.535Z,7.91
2019-05-12T02:20:38.179Z,7.94
2019-05-12T02:23:41.479Z,7.94
2019-05-12T02:26:45.186Z,7.70
2019-05-12T02:29:48.837Z,7.69
2019-05-12T02:32:58.858Z,7.75
2019-05-12T02:35:59.251Z,7.79
2019-05-12T02:39:05.335Z,7.88
2019-05-12T02:42:09.846Z,7.83
2019-05-12T02:45:15.610Z,7.79
2019-05-12T02:48:19.512Z,7.77
2019-05-12T02:51:24.889Z,7.75
2019-05-12T02:54:49.410Z,7.59
2019-05-12T02:57:35.005Z,7.48
2019-05-12T03:00:39.466Z,7.47
2019-05-12T03:03:45.555Z,7.62
2019-05-12T03:06:49.594Z,7.56
2019-05-12T03:09:55.094Z,7.60
2019-05-12T03:12:58.933Z,7.74
2019-05-12T03:16:04.775Z,7.86
2019-05-12T03:19:08.192Z,7.76
2019-05-12T03:22:14.202Z,7.87
2019-05-12T03:25:24.591Z,7.74
2019-05-12T03:28:25.568Z,7.74
2019-05-12T03:31:31.250Z,7.69
2019-05-12T03:34:38.108Z,7.58
2019-05-12T03:37:38.714Z,7.50
2019-05-12T03:40:45.140Z,7.55
2019-05-12T03:43:48.347Z,7.57
2019-05-12T03:46:54.334Z,7.56
2019-05-12T03:49:57.463Z,7.51
2019-05-12T03:53:06.364Z,7.46
2019-05-12T03:56:06.808Z,7.49
2019-05-12T03:59:10.539Z,7.46
2019-05-12T04:02:15.013Z,7.36
2019-05-12T04:05:19.550Z,7.27
2019-05-12T04:08:24.595Z,7.20
2019-05-12T04:11:28.501Z,7.27
2019-05-12T04:14:34.525Z,7.24
2019-05-12T04:17:37.668Z,7.06
2019-05-12T04:20:41.386Z,6.95
2019-05-12T04:23:45.192Z,7.02
2019-05-12T04:26:48.863Z,7.02
2019-05-12T04:29:54.739Z,7.13
2019-05-12T04:32:57.823Z,7.21
2019-05-12T04:36:01.450Z,7.18
2019-05-12T04:39:07.129Z,7.24
2019-05-12T04:42:10.988Z,7.38
2019-05-12T04:45:15.871Z,7.27
2019-05-12T04:48:21.491Z,7.35
2019-05-12T04:51:26.171Z,7.37
2019-05-12T04:54:29.787Z,7.26
2019-05-12T04:57:34.615Z,7.13
2019-05-12T05:00:38.379Z,7.12
2019-05-12T05:03:44.284Z,7.13
2019-05-12T05:06:47.328Z,7.28
2019-05-12T05:09:50.901Z,7.26
2019-05-12T05:12:54.455Z,7.23
2019-05-12T05:15:57.998Z,7.31
2019-05-12T05:19:03.649Z,7.36
2019-05-12T05:22:07.688Z,7.46
2019-05-12T05:25:11.284Z,7.48
2019-05-12T05:28:14.901Z,7.62
2019-05-12T05:31:18.510Z,7.70
2019-05-12T05:34:23.595Z,7.62
2019-05-12T05:37:30.689Z,7.40
2019-05-12T05:40:32.603Z,7.46
2019-05-12T05:43:36.192Z,7.54
2019-05-12T05:46:48.304Z,7.60
2019-05-12T05:49:45.499Z,7.73
2019-05-12T05:52:49.175Z,7.87
2019-05-12T05:55:58.633Z,7.76
2019-05-12T05:58:58.175Z,7.77
2019-05-12T06:02:04.702Z,7.88
2019-05-12T06:05:07.250Z,7.85
2019-05-12T06:08:18.641Z,7.73
2019-05-12T06:11:26.550Z,7.82
2019-05-12T06:14:23.558Z,7.83
2019-05-12T06:17:27.020Z,7.78
2019-05-12T06:20:37.463Z,7.85
2019-05-12T06:23:39.222Z,7.97
2019-05-12T06:26:56.638Z,7.92
2019-05-12T06:29:54.479Z,8.01
2019-05-12T06:32:54.658Z,8.40
2019-05-12T06:35:58.235Z,8.84
2019-05-12T06:39:04.253Z,9.04
2019-05-12T06:42:14.193Z,8.87
2019-05-12T06:45:14.357Z,8.93
2019-05-12T06:48:24.433Z,8.81
2019-05-12T06:51:25.905Z,8.76
2019-05-12T06:54:30.680Z,8.58
2019-05-12T06:57:34.390Z,8.41
2019-05-12T07:00:37.953Z,8.59
2019-05-12T07:03:43.887Z,9.15
2019-05-12T07:06:49.861Z,9.43
2019-05-12T07:09:54.951Z,10.02
2019-05-12T07:13:01.701Z,10.04
2019-05-12T07:16:22.105Z,9.88
2019-05-12T07:19:23.362Z,9.64
2019-05-12T07:22:31.828Z,9.55
2019-05-12T07:25:36.282Z,9.38
2019-05-12T07:28:40.513Z,9.91
2019-05-12T07:31:44.224Z,10.33
2019-05-12T07:34:48.114Z,10.52
2019-05-12T07:37:53.917Z,9.79
2019-05-12T07:41:00.868Z,9.61
2019-05-12T07:44:04.058Z,9.84
2019-05-12T07:47:07.678Z,9.83
2019-05-12T07:50:16.309Z,10.06
2019-05-12T07:53:16.765Z,10.19
2019-05-12T07:56:25.955Z,10.18
2019-05-12T07:59:34.172Z,10.39
2019-05-12T08:02:31.932Z,11.08
2019-05-12T08:05:36.465Z,11.18
2019-05-12T08:08:44.156Z,12.60
2019-05-12T08:11:45.331Z,13.42
2019-05-12T08:14:48.894Z,14.58
2019-05-12T08:17:55.373Z,13.57
2019-05-12T08:20:59.993Z,12.26
2019-05-12T08:24:03.735Z,12.08
2019-05-12T08:27:07.485Z,12.45
2019-05-12T08:30:13.889Z,13.24
2019-05-12T08:33:17.098Z,12.49
2019-05-12T08:36:20.626Z,12.79
2019-05-12T08:39:25.986Z,12.04
2019-05-12T08:42:29.852Z,11.98
2019-05-12T08:45:37.152Z,12.05
2019-05-12T08:48:39.165Z,12.25
2019-05-12T08:51:44.241Z,12.43
2019-05-12T08:54:49.541Z,12.37
2019-05-12T08:57:54.188Z,12.49
2019-05-12T09:00:57.792Z,13.19
2019-05-12T09:04:06.670Z,13.72
2019-05-12T09:07:06.942Z,14.04
2019-05-12T09:10:10.490Z,13.69
2019-05-12T09:13:14.491Z,14.40
2019-05-12T09:16:20.325Z,14.48
2019-05-12T09:19:26.992Z,14.36
2019-05-12T09:22:29.255Z,13.10
2019-05-12T09:25:34.083Z,13.83
2019-05-12T09:28:49.246Z,13.27
2019-05-12T09:31:44.070Z,14.39
2019-05-12T09:34:53.106Z,14.68
2019-05-12T09:37:53.644Z,14.90
2019-05-12T09:41:01.162Z,14.49
2019-05-12T09:44:07.239Z,16.14
2019-05-12T09:47:21.917Z,16.86
2019-05-12T09:50:20.238Z,16.06
2019-05-12T09:53:23.702Z,15.82
2019-05-12T09:56:27.618Z,17.79
2019-05-12T09:59:33.494Z,18.80
2019-05-12T10:02:39.711Z,19.51
2019-05-12T10:05:44.157Z,19.35
2019-05-12T10:08:48.008Z,19.18
2019-05-12T10:12:00.278Z,18.77
2019-05-12T10:14:57.416Z,19.55
2019-05-12T10:18:06.627Z,18.94
2019-05-12T10:21:10.078Z,22.09
2019-05-12T10:24:12.793Z,21.33
2019-05-12T10:27:21.153Z,21.08
2019-05-12T10:30:23.477Z,20.40
2019-05-12T10:33:27.363Z,19.56
2019-05-12T10:36:31.284Z,21.94
2019-05-12T10:39:34.979Z,21.12
2019-05-12T10:42:39.799Z,19.52
2019-05-12T10:45:44.285Z,20.97
2019-05-12T10:48:47.972Z,22.66
2019-05-12T10:51:53.803Z,21.38
2019-05-12T10:54:57.198Z,21.18
2019-05-12T10:58:01.997Z,20.79
2019-05-12T11:01:08.559Z,20.91
2019-05-12T11:04:14.190Z,21.46
2019-05-12T11:07:17.421Z,23.17
2019-05-12T11:10:23.209Z,21.30
2019-05-12T11:13:26.553Z,21.08
2019-05-12T11:16:32.061Z,21.37
2019-05-12T11:19:40.872Z,21.98
2019-05-12T11:22:40.907Z,22.30
2019-05-12T11:25:44.575Z,21.71
2019-05-12T11:28:48.189Z,22.37
2019-05-12T11:31:53.821Z,23.00
2019-05-12T11:34:57.378Z,21.27
2019-05-12T11:38:01.032Z,24.49
2019-05-12T11:41:04.654Z,22.36
2019-05-12T11:44:08.341Z,23.31
2019-05-12T11:47:14.678Z,22.14
2019-05-12T11:50:17.527Z,21.99
2019-05-12T11:53:21.830Z,23.65
2019-05-12T11:56:26.599Z,22.60
2019-05-12T11:59:30.207Z,21.45
2019-05-12T12:02:34.293Z,22.22
2019-05-12T12:05:39.722Z,22.30
2019-05-12T12:08:44.179Z,22.63
2019-05-12T12:11:54.659Z,22.39
2019-05-12T12:14:54.810Z,22.40
2019-05-12T12:18:03.823Z,22.21
2019-05-12T12:21:07.543Z,21.02
2019-05-12T12:24:09.430Z,21.98
2019-05-12T12:27:14.228Z,22.30
2019-05-12T12:30:20.166Z,21.84
2019-05-12T12:33:24.065Z,21.07
2019-05-12T12:36:27.771Z,21.63
2019-05-12T12:39:31.494Z,22.85
2019-05-12T12:42:36.967Z,24.16
2019-05-12T12:45:45.212Z,23.00
2019-05-12T12:48:48.846Z,20.93
2019-05-12T12:51:52.553Z,20.01
2019-05-12T12:54:59.392Z,21.98
2019-05-12T12:58:03.343Z,21.32
2019-05-12T13:01:07.225Z,22.29
2019-05-12T13:04:13.143Z,22.96
2019-05-12T13:07:16.229Z,21.20
2019-05-12T13:10:20.022Z,21.95
2019-05-12T13:13:24.598Z,22.09
2019-05-12T13:16:28.301Z,22.27
2019-05-12T13:19:33.230Z,22.59
2019-05-12T13:22:37.066Z,21.25
2019-05-12T13:25:48.378Z,21.49
2019-05-12T13:28:53.140Z,21.12
2019-05-12T13:31:54.591Z,22.45
2019-05-12T13:34:58.222Z,23.45
2019-05-12T13:38:05.355Z,21.86
2019-05-12T13:41:09.691Z,21.83
2019-05-12T13:44:14.646Z,20.88
2019-05-12T13:47:18.490Z,22.72
2019-05-12T13:50:26.474Z,23.50
2019-05-12T13:53:29.983Z,22.71
2019-05-12T13:56:35.862Z,23.05
2019-05-12T13:59:43.530Z,22.46
2019-05-12T14:02:48.919Z,21.27
2019-05-12T14:05:55.215Z,21.51
2019-05-12T14:08:59.135Z,21.29
2019-05-12T14:12:04.328Z,20.76
2019-05-12T14:15:08.409Z,21.96
2019-05-12T14:18:16.547Z,21.08
2019-05-12T14:21:17.459Z,20.92
2019-05-12T14:24:23.428Z,18.16
2019-05-12T14:27:28.830Z,17.26
2019-05-12T14:30:33.663Z,16.79
2019-05-12T14:33:39.449Z,16.43
2019-05-12T14:36:43.368Z,16.19
2019-05-12T14:39:50.291Z,16.05
2019-05-12T14:42:54.401Z,16.08
2019-05-12T14:46:00.220Z,16.28
2019-05-12T14:49:03.650Z,15.98
2019-05-12T14:52:07.268Z,16.06
2019-05-12T14:55:11.164Z,16.09
2019-05-12T14:58:20.186Z,16.00
2019-05-12T15:01:20.402Z,16.00
2019-05-12T15:04:27.970Z,16.25
2019-05-12T15:07:29.547Z,16.34
2019-05-12T15:10:33.779Z,15.86
2019-05-12T15:13:37.938Z,15.98
2019-05-12T15:16:44.208Z,15.93
2019-05-12T15:19:47.108Z,15.93
2019-05-12T15:22:52.757Z,15.94
2019-05-12T15:25:56.588Z,15.94
2019-05-12T15:29:05.291Z,15.91
2019-05-12T15:32:05.882Z,15.91
2019-05-12T15:35:10.902Z,16.00
2019-05-12T15:38:16.645Z,15.93
2019-05-12T15:41:20.284Z,15.88
2019-05-12T15:44:31.534Z,15.84
2019-05-12T15:47:30.225Z,15.83
2019-05-12T15:50:34.336Z,15.74
2019-05-12T15:53:38.136Z,15.72
2019-05-12T15:56:41.948Z,15.67
2019-05-12T15:59:45.568Z,15.70
2019-05-12T16:02:55.859Z,15.72
2019-05-12T16:06:01.284Z,15.66
2019-05-12T16:09:06.583Z,15.60
2019-05-12T16:12:20.035Z,15.61
2019-05-12T16:15:19.187Z,15.65
2019-05-12T16:18:26.720Z,15.69
2019-05-12T16:21:30.501Z,15.66
2019-05-12T16:24:34.281Z,15.57
2019-05-12T16:27:38.570Z,15.59
2019-05-12T16:30:43.889Z,15.56
2019-05-12T16:33:52.977Z,15.50
2019-05-12T16:36:54.875Z,15.44
2019-05-12T16:39:58.613Z,15.34
2019-05-12T16:43:03.944Z,15.32
2019-05-12T16:46:07.798Z,15.30
2019-05-12T16:49:13.861Z,15.33
2019-05-12T16:52:16.783Z,15.29
2019-05-12T16:55:20.726Z,15.20
2019-05-12T16:58:33.121Z,15.01
2019-05-12T17:01:35.305Z,14.89
2019-05-12T17:04:39.173Z,14.97
2019-05-12T17:07:44.155Z,14.91
2019-05-12T17:10:58.199Z,14.97
2019-05-12T17:13:56.722Z,15.08
2019-05-12T17:16:58.912Z,15.03
2019-05-12T17:20:04.409Z,15.00
2019-05-12T17:23:08.150Z,14.94
2019-05-12T17:26:13.910Z,14.96
2019-05-12T17:29:17.330Z,14.99
2019-05-12T17:32:23.860Z,14.91
2019-05-12T17:35:31.710Z,14.90
2019-05-12T17:38:34.549Z,14.85
2019-05-12T17:41:42.256Z,14.91
2019-05-12T17:44:44.222Z,14.88
2019-05-12T17:47:47.860Z,14.89
2019-05-12T17:50:53.773Z,14.79
2019-05-12T17:53:56.922Z,14.63
2019-05-12T17:57:00.669Z,14.65
2019-05-12T18:00:10.744Z,14.54
2019-05-12T18:03:21.865Z,14.43
2019-05-12T18:06:26.801Z,14.31
2019-05-12T18:09:26.980Z,14.18
2019-05-12T18:12:36.625Z,14.06
2019-05-12T18:15:38.083Z,13.99
2019-05-12T18:18:43.562Z,13.90
2019-05-12T18:21:47.491Z,13.77
2019-05-12T18:24:51.234Z,13.70
2019-05-12T18:27:54.812Z,13.64
2019-05-12T18:30:58.664Z,13.58
2019-05-12T18:34:04.778Z,13.43
2019-05-12T18:37:07.739Z,13.36
2019-05-12T18:40:14.693Z,13.26
2019-05-12T18:43:18.094Z,13.16
2019-05-12T18:46:23.934Z,13.13
2019-05-12T18:49:27.685Z,12.96
2019-05-12T18:52:39.288Z,12.94
2019-05-12T18:55:40.404Z,12.80
2019-05-12T18:58:44.493Z,12.80
2019-05-12T19:01:47.688Z,12.64
2019-05-12T19:04:53.475Z,12.60
2019-05-12T19:07:57.055Z,12.50
2019-05-12T19:11:14.929Z,12.38
2019-05-12T19:14:06.210Z,12.28
2019-05-12T19:17:09.941Z,12.21
2019-05-12T19:20:14.564Z,12.12
2019-05-12T19:23:18.254Z,12.08
2019-05-12T19:26:22.034Z,12.06
2019-05-12T19:29:29.732Z,11.98
2019-05-12T19:32:31.116Z,11.88
2019-05-12T19:35:37.920Z,11.83
2019-05-12T19:38:40.796Z,11.74
2019-05-12T19:41:44.704Z,11.69
2019-05-12T19:44:48.605Z,11.66
2019-05-12T19:47:53.551Z,11.61
2019-05-12T19:50:57.561Z,11.64
2019-05-12T19:54:03.519Z,11.51
2019-05-12T19:57:06.819Z,11.36
2019-05-12T20:00:13.638Z,11.39
2019-05-12T20:03:16.977Z,11.34
2019-05-12T20:06:21.071Z,11.27
2019-05-12T20:09:27.956Z,11.30
2019-05-12T20:12:34.318Z,11.18
2019-05-12T20:15:41.053Z,11.14
2019-05-12T20:18:49.007Z,11.14
2019-05-12T20:21:49.246Z,11.07
2019-05-12T20:24:53.770Z,11.06
2019-05-12T20:28:05.860Z,10.99
2019-05-12T20:31:05.893Z,10.98
2019-05-12T20:34:10.852Z,10.89
2019-05-12T20:37:16.828Z,10.80
2019-05-12T20:40:20.368Z,10.74
2019-05-12T20:43:32.162Z,10.72
2019-05-12T20:46:30.062Z,10.69
2019-05-12T20:49:33.827Z,10.62
2019-05-12T20:52:39.441Z,10.60
2019-05-12T20:55:44.270Z,10.60
2019-05-12T20:58:48.216Z,10.53
2019-05-12T21:01:52.645Z,10.47
2019-05-12T21:05:01.132Z,10.52
2019-05-12T21:08:08.953Z,10.44
2019-05-12T21:11:07.624Z,10.40
2019-05-12T21:14:12.489Z,10.35
2019-05-12T21:17:18.428Z,10.33
2019-05-12T21:20:27.918Z,10.36
2019-05-12T21:23:33.282Z,10.34
2019-05-12T21:26:39.928Z,10.28
2019-05-12T21:29:43.868Z,10.25
2019-05-12T21:32:59.080Z,10.20
2019-05-12T21:35:54.655Z,10.17
2019-05-12T21:38:59.491Z,10.14
2019-05-12T21:42:04.247Z,10.04
2019-05-12T21:45:08.155Z,10.07
2019-05-12T21:48:15.055Z,10.02
2019-05-12T21:51:19.938Z,9.96
2019-05-12T21:54:24.214Z,9.86
2019-05-12T21:57:31.169Z,9.84
2019-05-12T22:00:45.023Z,9.80
2019-05-12T22:03:57.985Z,9.80
2019-05-12T22:06:57.349Z,9.69
2019-05-12T22:10:01.667Z,9.57
2019-05-12T22:13:12.147Z,9.53
2019-05-12T22:16:11.043Z,9.52
2019-05-12T22:19:14.821Z,9.47
2019-05-12T22:22:24.611Z,9.40
2019-05-12T22:25:25.416Z,9.43
2019-05-12T22:28:29.272Z,9.38
2019-05-12T22:31:33.411Z,9.33
2019-05-12T22:34:41.839Z,9.34
2019-05-12T22:37:44.674Z,9.34
2019-05-12T22:40:49.223Z,9.32
2019-05-12T22:43:56.432Z,9.33
2019-05-12T22:47:04.218Z,9.33
2019-05-12T22:50:06.088Z,9.28
2019-05-12T22:53:09.961Z,9.20
2019-05-12T22:56:18.049Z,9.11
2019-05-12T22:59:19.065Z,9.09
2019-05-12T23:02:27.989Z,9.07
2019-05-12T23:05:28.465Z,8.97
2019-05-12T23:08:33.406Z,8.87
2019-05-12T23:11:37.981Z,8.83
2019-05-12T23:14:41.713Z,8.79
2019-05-12T23:17:49.335Z,8.76
2019-05-12T23:20:50.710Z,8.73
2019-05-12T23:23:57.456Z,8.68
2019-05-12T23:27:00.084Z,8.56
2019-05-12T23:30:10.748Z,8.46
2019-05-12T23:33:13.912Z,8.49
2019-05-12T23:36:19.595Z,8.39
2019-05-12T23:39:23.570Z,8.30
2019-05-12T23:42:27.210Z,8.26
2019-05-12T23:45:30.993Z,8.22
2019-05-12T23:48:34.577Z,8.16
2019-05-12T23:51:38.389Z,8.15
2019-05-12T23:54:44.359Z,7.99
2019-05-12T23:57:47.492Z,7.97
